sensor_id;sensor_type;location;lat;lon;timestamp;pressure;altitude;pressure_sealevel;temperature;humidity
76321;BME280;65132;52.088;5.402;2022-12-18T00:01:33;102995.00;;;-3.96;97.60
76321;BME280;65132;52.088;5.402;2022-12-18T00:04:02;102996.78;;;-4.03;97.31
76321;BME280;65132;52.088;5.402;2022-12-18T00:06:30;102988.84;;;-4.06;97.74
76321;BME280;65132;52.088;5.402;2022-12-18T00:08:57;102990.59;;;-4.02;97.73
76321;BME280;65132;52.088;5.402;2022-12-18T00:11:25;102980.91;;;-4.07;97.99
76321;BME280;65132;52.088;5.402;2022-12-18T00:13:55;102963.28;;;-4.08;97.63
76321;BME280;65132;52.088;5.402;2022-12-18T00:16:23;102958.88;;;-4.03;97.95
76321;BME280;65132;52.088;5.402;2022-12-18T00:18:55;102971.22;;;-4.07;98.01
76321;BME280;65132;52.088;5.402;2022-12-18T00:21:22;102960.66;;;-4.10;97.58
76321;BME280;65132;52.088;5.402;2022-12-18T00:23:49;102970.31;;;-4.10;97.62
76321;BME280;65132;52.088;5.402;2022-12-18T00:26:21;102972.09;;;-4.15;97.69
76321;BME280;65132;52.088;5.402;2022-12-18T00:28:48;102978.28;;;-4.22;97.68
76321;BME280;65132;52.088;5.402;2022-12-18T00:31:18;102986.22;;;-4.22;97.98
76321;BME280;65132;52.088;5.402;2022-12-18T00:33:45;102980.03;;;-4.23;97.92
76321;BME280;65132;52.088;5.402;2022-12-18T00:36:16;102980.03;;;-4.21;98.01
76321;BME280;65132;52.088;5.402;2022-12-18T00:38:43;102979.13;;;-4.20;98.00
76321;BME280;65132;52.088;5.402;2022-12-18T00:41:11;102979.16;;;-4.17;97.83
76321;BME280;65132;52.088;5.402;2022-12-18T00:43:39;102977.38;;;-4.17;97.29
76321;BME280;65132;52.088;5.402;2022-12-18T00:46:06;102979.16;;;-4.16;97.01
76321;BME280;65132;52.088;5.402;2022-12-18T00:48:32;102969.47;;;-4.23;97.31
76321;BME280;65132;52.088;5.402;2022-12-18T00:50:59;102973.00;;;-4.21;97.60
76321;BME280;65132;52.088;5.402;2022-12-18T00:53:25;102969.47;;;-4.21;96.59
76321;BME280;65132;52.088;5.402;2022-12-18T00:55:52;102968.56;;;-4.26;96.84
76321;BME280;65132;52.088;5.402;2022-12-18T00:58:18;102966.81;;;-4.26;97.00
76321;BME280;65132;52.088;5.402;2022-12-18T01:00:45;102972.97;;;-4.25;96.60
76321;BME280;65132;52.088;5.402;2022-12-18T01:03:14;102974.72;;;-4.32;96.84
76321;BME280;65132;52.088;5.402;2022-12-18T01:05:41;102964.16;;;-4.27;96.87
76321;BME280;65132;52.088;5.402;2022-12-18T01:08:08;102952.72;;;-4.28;97.01
76321;BME280;65132;52.088;5.402;2022-12-18T01:10:34;102953.59;;;-4.32;96.34
76321;BME280;65132;52.088;5.402;2022-12-18T01:13:00;102954.50;;;-4.34;96.37
76321;BME280;65132;52.088;5.402;2022-12-18T01:15:27;102958.00;;;-4.37;96.13
76321;BME280;65132;52.088;5.402;2022-12-18T01:17:53;102965.03;;;-4.40;96.47
76321;BME280;65132;52.088;5.402;2022-12-18T01:20:20;102968.56;;;-4.41;96.43
76321;BME280;65132;52.088;5.402;2022-12-18T01:22:46;102956.22;;;-4.48;96.63
76321;BME280;65132;52.088;5.402;2022-12-18T01:25:13;102960.63;;;-4.52;96.44
76321;BME280;65132;52.088;5.402;2022-12-18T01:27:39;102965.91;;;-4.52;96.36
76321;BME280;65132;52.088;5.402;2022-12-18T01:30:06;102969.41;;;-4.54;96.31
76321;BME280;65132;52.088;5.402;2022-12-18T01:32:33;102979.09;;;-4.59;95.86
76321;BME280;65132;52.088;5.402;2022-12-18T01:34:59;102979.97;;;-4.60;96.08
76321;BME280;65132;52.088;5.402;2022-12-18T01:37:26;102983.50;;;-4.61;96.26
76321;BME280;65132;52.088;5.402;2022-12-18T01:39:52;102989.66;;;-4.65;95.95
76321;BME280;65132;52.088;5.402;2022-12-18T01:42:19;102987.00;;;-4.68;95.97
76321;BME280;65132;52.088;5.402;2022-12-18T01:49:52;102986.97;;;-4.76;96.28
76321;BME280;65132;52.088;5.402;2022-12-18T01:52:21;102992.25;;;-4.74;95.92
76321;BME280;65132;52.088;5.402;2022-12-18T01:54:50;102986.97;;;-4.77;95.71
76321;BME280;65132;52.088;5.402;2022-12-18T01:57:17;102985.22;;;-4.77;95.81
76321;BME280;65132;52.088;5.402;2022-12-18T01:59:45;102996.66;;;-4.79;95.57
76321;BME280;65132;52.088;5.402;2022-12-18T02:02:15;102991.38;;;-4.81;95.48
76321;BME280;65132;52.088;5.402;2022-12-18T02:04:42;102989.56;;;-4.85;95.71
76321;BME280;65132;52.088;5.402;2022-12-18T02:07:29;102983.44;;;-4.87;95.74
76321;BME280;65132;52.088;5.402;2022-12-18T02:10:01;102993.09;;;-4.86;96.09
76321;BME280;65132;52.088;5.402;2022-12-18T02:18:00;102993.97;;;-4.92;95.01
76321;BME280;65132;52.088;5.402;2022-12-18T02:20:48;102999.22;;;-4.99;94.95
76321;BME280;65132;52.088;5.402;2022-12-18T02:26:11;102994.81;;;-5.02;93.83
76321;BME280;65132;52.088;5.402;2022-12-18T02:28:58;102994.75;;;-5.18;93.29
76321;BME280;65132;52.088;5.402;2022-12-18T02:31:29;103004.41;;;-5.20;93.89
76321;BME280;65132;52.088;5.402;2022-12-18T02:34:00;102997.34;;;-5.26;93.52
76321;BME280;65132;52.088;5.402;2022-12-18T02:36:28;102987.63;;;-5.34;92.80
76321;BME280;65132;52.088;5.402;2022-12-18T02:38:56;102992.00;;;-5.38;93.42
76321;BME280;65132;52.088;5.402;2022-12-18T02:41:25;102980.53;;;-5.47;93.41
76321;BME280;65132;52.088;5.402;2022-12-18T02:43:57;102984.91;;;-5.51;93.36
76321;BME280;65132;52.088;5.402;2022-12-18T02:46:31;102983.13;;;-5.53;93.00
76321;BME280;65132;52.088;5.402;2022-12-18T02:51:56;102974.28;;;-5.58;92.77
76321;BME280;65132;52.088;5.402;2022-12-18T02:54:34;102977.78;;;-5.65;92.68
76321;BME280;65132;52.088;5.402;2022-12-18T02:57:13;102978.63;;;-5.71;92.72
76321;BME280;65132;52.088;5.402;2022-12-18T02:59:49;102977.72;;;-5.73;92.85
76321;BME280;65132;52.088;5.402;2022-12-18T03:02:48;102982.09;;;-5.73;92.38
76321;BME280;65132;52.088;5.402;2022-12-18T03:05:26;102975.06;;;-5.76;92.51
76321;BME280;65132;52.088;5.402;2022-12-18T03:08:02;102967.16;;;-5.76;92.79
76321;BME280;65132;52.088;5.402;2022-12-18T03:10:32;102953.09;;;-5.73;93.90
76321;BME280;65132;52.088;5.402;2022-12-18T03:13:04;102953.09;;;-5.75;92.92
76321;BME280;65132;52.088;5.402;2022-12-18T03:15:39;102950.47;;;-5.76;92.62
76321;BME280;65132;52.088;5.402;2022-12-18T03:18:12;102955.75;;;-5.75;92.48
76321;BME280;65132;52.088;5.402;2022-12-18T03:20:43;102948.69;;;-5.86;91.50
76321;BME280;65132;52.088;5.402;2022-12-18T03:23:13;102945.13;;;-5.94;91.16
76321;BME280;65132;52.088;5.402;2022-12-18T03:25:44;102946.84;;;-5.95;91.58
76321;BME280;65132;52.088;5.402;2022-12-18T03:28:14;102935.41;;;-6.01;91.76
76321;BME280;65132;52.088;5.402;2022-12-18T03:30:44;102933.66;;;-6.01;92.42
76321;BME280;65132;52.088;5.402;2022-12-18T03:33:16;102930.97;;;-6.08;92.03
76321;BME280;65132;52.088;5.402;2022-12-18T03:35:46;102945.88;;;-6.07;92.60
76321;BME280;65132;52.088;5.402;2022-12-18T03:38:13;102934.47;;;-6.09;92.04
76321;BME280;65132;52.088;5.402;2022-12-18T03:46:13;102933.63;;;-6.04;93.05
76321;BME280;65132;52.088;5.402;2022-12-18T03:48:45;102923.97;;;-6.03;93.33
76321;BME280;65132;52.088;5.402;2022-12-18T03:51:21;102922.25;;;-5.97;92.72
76321;BME280;65132;52.088;5.402;2022-12-18T03:53:55;102924.03;;;-5.94;92.98
76321;BME280;65132;52.088;5.402;2022-12-18T03:56:27;102924.03;;;-5.93;92.76
76321;BME280;65132;52.088;5.402;2022-12-18T03:58:57;102918.78;;;-5.91;93.45
76321;BME280;65132;52.088;5.402;2022-12-18T04:01:29;102921.44;;;-5.84;94.12
76321;BME280;65132;52.088;5.402;2022-12-18T04:03:59;102912.66;;;-5.81;93.21
76321;BME280;65132;52.088;5.402;2022-12-18T04:06:28;102920.56;;;-5.77;93.85
76321;BME280;65132;52.088;5.402;2022-12-18T04:08:57;102920.63;;;-5.72;93.33
76321;BME280;65132;52.088;5.402;2022-12-18T04:11:24;102906.56;;;-5.73;93.24
76321;BME280;65132;52.088;5.402;2022-12-18T04:13:55;102905.66;;;-5.79;92.77
76321;BME280;65132;52.088;5.402;2022-12-18T04:16:22;102908.28;;;-5.78;92.42
76321;BME280;65132;52.088;5.402;2022-12-18T04:18:48;102899.50;;;-5.77;92.73
76321;BME280;65132;52.088;5.402;2022-12-18T04:21:14;102890.72;;;-5.77;92.43
76321;BME280;65132;52.088;5.402;2022-12-18T04:23:41;102886.31;;;-5.83;92.14
76321;BME280;65132;52.088;5.402;2022-12-18T04:26:08;102895.13;;;-5.82;92.63
76321;BME280;65132;52.088;5.402;2022-12-18T04:28:34;102891.59;;;-5.86;92.72
76321;BME280;65132;52.088;5.402;2022-12-18T04:31:01;102895.09;;;-5.79;92.78
76321;BME280;65132;52.088;5.402;2022-12-18T04:33:27;102897.75;;;-5.73;93.29
76321;BME280;65132;52.088;5.402;2022-12-18T04:35:53;102895.16;;;-5.70;92.59
76321;BME280;65132;52.088;5.402;2022-12-18T04:38:20;102893.38;;;-5.68;92.47
76321;BME280;65132;52.088;5.402;2022-12-18T04:40:46;102896.91;;;-5.71;92.95
76321;BME280;65132;52.088;5.402;2022-12-18T04:43:13;102904.81;;;-5.68;92.46
76321;BME280;65132;52.088;5.402;2022-12-18T04:45:40;102901.34;;;-5.62;92.61
76321;BME280;65132;52.088;5.402;2022-12-18T04:48:06;102911.88;;;-5.65;92.67
76321;BME280;65132;52.088;5.402;2022-12-18T04:50:32;102920.69;;;-5.62;92.22
76321;BME280;65132;52.088;5.402;2022-12-18T04:52:59;102911.84;;;-5.67;92.28
76321;BME280;65132;52.088;5.402;2022-12-18T04:55:26;102926.78;;;-5.70;92.64
76321;BME280;65132;52.088;5.402;2022-12-18T04:57:53;102921.47;;;-5.72;92.98
76321;BME280;65132;52.088;5.402;2022-12-18T05:00:20;102925.00;;;-5.74;92.49
76321;BME280;65132;52.088;5.402;2022-12-18T05:02:47;102925.84;;;-5.78;92.78
76321;BME280;65132;52.088;5.402;2022-12-18T05:05:13;102934.66;;;-5.82;91.61
76321;BME280;65132;52.088;5.402;2022-12-18T05:07:40;102939.03;;;-5.87;91.42
76321;BME280;65132;52.088;5.402;2022-12-18T05:10:07;102943.34;;;-5.95;91.15
76321;BME280;65132;52.088;5.402;2022-12-18T05:12:35;102941.50;;;-6.08;91.64
76321;BME280;65132;52.088;5.402;2022-12-18T05:15:05;102944.94;;;-6.17;91.78
76321;BME280;65132;52.088;5.402;2022-12-18T05:17:32;102938.75;;;-6.22;91.44
76321;BME280;65132;52.088;5.402;2022-12-18T05:19:58;102946.66;;;-6.24;91.48
76321;BME280;65132;52.088;5.402;2022-12-18T05:22:24;102943.94;;;-6.30;91.67
76321;BME280;65132;52.088;5.402;2022-12-18T05:24:51;102950.09;;;-6.32;90.88
76321;BME280;65132;52.088;5.402;2022-12-18T05:27:17;102953.53;;;-6.39;91.32
76321;BME280;65132;52.088;5.402;2022-12-18T05:29:43;102961.44;;;-6.38;90.79
76321;BME280;65132;52.088;5.402;2022-12-18T05:32:10;102962.28;;;-6.42;90.80
76321;BME280;65132;52.088;5.402;2022-12-18T05:34:36;102970.22;;;-6.40;91.16
76321;BME280;65132;52.088;5.402;2022-12-18T05:37:03;102960.53;;;-6.43;90.94
76321;BME280;65132;52.088;5.402;2022-12-18T05:39:29;102956.94;;;-6.51;91.36
76321;BME280;65132;52.088;5.402;2022-12-18T05:41:56;102952.53;;;-6.52;91.07
76321;BME280;65132;52.088;5.402;2022-12-18T05:44:22;102953.41;;;-6.51;91.59
76321;BME280;65132;52.088;5.402;2022-12-18T05:46:49;102939.31;;;-6.58;91.12
76321;BME280;65132;52.088;5.402;2022-12-18T05:49:15;102941.09;;;-6.55;92.11
76321;BME280;65132;52.088;5.402;2022-12-18T05:51:42;102935.84;;;-6.54;91.31
76321;BME280;65132;52.088;5.402;2022-12-18T05:54:08;102932.34;;;-6.54;91.25
76321;BME280;65132;52.088;5.402;2022-12-18T05:56:35;102935.06;;;-6.44;91.95
76321;BME280;65132;52.088;5.402;2022-12-18T05:59:01;102928.03;;;-6.42;92.06
76321;BME280;65132;52.088;5.402;2022-12-18T06:01:28;102935.97;;;-6.40;92.04
76321;BME280;65132;52.088;5.402;2022-12-18T06:03:55;102928.94;;;-6.40;91.85
76321;BME280;65132;52.088;5.402;2022-12-18T06:06:23;102928.13;;;-6.36;91.52
76321;BME280;65132;52.088;5.402;2022-12-18T06:08:51;102928.13;;;-6.36;91.68
76321;BME280;65132;52.088;5.402;2022-12-18T06:11:22;102924.66;;;-6.32;91.72
76321;BME280;65132;52.088;5.402;2022-12-18T06:13:52;102915.13;;;-6.13;92.20
76321;BME280;65132;52.088;5.402;2022-12-18T06:16:24;102915.16;;;-6.07;92.41
76321;BME280;65132;52.088;5.402;2022-12-18T06:18:51;102908.19;;;-5.99;92.88
76321;BME280;65132;52.088;5.402;2022-12-18T06:21:18;102908.28;;;-5.79;92.08
76321;BME280;65132;52.088;5.402;2022-12-18T06:23:44;102895.13;;;-5.73;91.40
76321;BME280;65132;52.088;5.402;2022-12-18T06:26:12;102887.22;;;-5.72;91.95
76321;BME280;65132;52.088;5.402;2022-12-18T06:28:39;102890.75;;;-5.68;91.35
76321;BME280;65132;52.088;5.402;2022-12-18T06:31:06;102903.97;;;-5.61;90.98
76321;BME280;65132;52.088;5.402;2022-12-18T06:33:34;102903.09;;;-5.60;91.09
76321;BME280;65132;52.088;5.402;2022-12-18T06:36:06;102902.19;;;-5.69;91.77
76321;BME280;65132;52.088;5.402;2022-12-18T06:38:33;102900.44;;;-5.67;91.28
76321;BME280;65132;52.088;5.402;2022-12-18T06:41:00;102890.75;;;-5.70;91.61
76321;BME280;65132;52.088;5.402;2022-12-18T06:43:31;102890.75;;;-5.71;91.24
76321;BME280;65132;52.088;5.402;2022-12-18T06:46:01;102889.00;;;-5.69;92.00
76321;BME280;65132;52.088;5.402;2022-12-18T06:48:29;102876.72;;;-5.70;91.29
76321;BME280;65132;52.088;5.402;2022-12-18T06:50:56;102874.91;;;-5.74;91.53
76321;BME280;65132;52.088;5.402;2022-12-18T06:53:22;102859.09;;;-5.77;91.96
76321;BME280;65132;52.088;5.402;2022-12-18T06:55:50;102864.31;;;-5.82;91.20
76321;BME280;65132;52.088;5.402;2022-12-18T06:58:18;102863.47;;;-5.75;91.33
76321;BME280;65132;52.088;5.402;2022-12-18T07:00:45;102874.91;;;-5.73;91.32
76321;BME280;65132;52.088;5.402;2022-12-18T07:03:11;102864.38;;;-5.74;91.28
76321;BME280;65132;52.088;5.402;2022-12-18T07:05:41;102866.09;;;-5.79;91.00
76321;BME280;65132;52.088;5.402;2022-12-18T07:08:07;102863.47;;;-5.79;90.96
76321;BME280;65132;52.088;5.402;2022-12-18T07:10:45;102854.69;;;-5.83;91.75
76321;BME280;65132;52.088;5.402;2022-12-18T07:13:17;102860.84;;;-5.78;91.77
76321;BME280;65132;52.088;5.402;2022-12-18T07:15:44;102850.28;;;-5.81;91.34
76321;BME280;65132;52.088;5.402;2022-12-18T07:18:10;102846.75;;;-5.81;90.70
76321;BME280;65132;52.088;5.402;2022-12-18T07:20:36;102836.25;;;-5.83;91.43
76321;BME280;65132;52.088;5.402;2022-12-18T07:23:04;102846.75;;;-5.80;91.41
76321;BME280;65132;52.088;5.402;2022-12-18T07:25:37;102843.28;;;-5.79;91.70
76321;BME280;65132;52.088;5.402;2022-12-18T07:28:03;102838.91;;;-5.72;90.72
76321;BME280;65132;52.088;5.402;2022-12-18T07:30:30;102837.13;;;-5.73;90.83
76321;BME280;65132;52.088;5.402;2022-12-18T07:32:57;102833.63;;;-5.72;90.42
76321;BME280;65132;52.088;5.402;2022-12-18T07:35:23;102829.22;;;-5.76;91.30
76321;BME280;65132;52.088;5.402;2022-12-18T07:37:51;102835.38;;;-5.71;90.83
76321;BME280;65132;52.088;5.402;2022-12-18T07:40:17;102833.63;;;-5.74;91.28
76321;BME280;65132;52.088;5.402;2022-12-18T07:42:43;102828.38;;;-5.66;91.11
76321;BME280;65132;52.088;5.402;2022-12-18T07:45:10;102812.56;;;-5.68;90.91
76321;BME280;65132;52.088;5.402;2022-12-18T07:47:36;102813.44;;;-5.66;90.63
76321;BME280;65132;52.088;5.402;2022-12-18T07:50:04;102813.44;;;-5.64;90.35
76321;BME280;65132;52.088;5.402;2022-12-18T07:52:30;102801.16;;;-5.61;91.19
76321;BME280;65132;52.088;5.402;2022-12-18T07:54:59;102806.47;;;-5.53;90.59
76321;BME280;65132;52.088;5.402;2022-12-18T07:57:25;102787.13;;;-5.49;90.10
76321;BME280;65132;52.088;5.402;2022-12-18T08:00:12;102789.75;;;-5.51;90.72
76321;BME280;65132;52.088;5.402;2022-12-18T08:02:39;102789.78;;;-5.40;90.56
76321;BME280;65132;52.088;5.402;2022-12-18T08:05:07;102791.53;;;-5.36;89.71
76321;BME280;65132;52.088;5.402;2022-12-18T08:07:34;102790.69;;;-5.31;90.05
76321;BME280;65132;52.088;5.402;2022-12-18T08:10:00;102778.41;;;-5.20;89.63
76321;BME280;65132;52.088;5.402;2022-12-18T08:12:27;102782.81;;;-4.98;88.49
76321;BME280;65132;52.088;5.402;2022-12-18T08:14:53;102781.03;;;-4.90;88.38
76321;BME280;65132;52.088;5.402;2022-12-18T08:17:21;102786.31;;;-4.88;88.85
76321;BME280;65132;52.088;5.402;2022-12-18T08:19:47;102774.88;;;-4.89;88.99
76321;BME280;65132;52.088;5.402;2022-12-18T08:22:13;102782.78;;;-4.90;88.56
76321;BME280;65132;52.088;5.402;2022-12-18T08:24:40;102783.69;;;-4.87;88.58
76321;BME280;65132;52.088;5.402;2022-12-18T08:27:06;102795.13;;;-4.84;88.69
76321;BME280;65132;52.088;5.402;2022-12-18T08:29:53;102800.38;;;-4.80;88.61
76321;BME280;65132;52.088;5.402;2022-12-18T08:32:19;102811.84;;;-4.76;88.86
76321;BME280;65132;52.088;5.402;2022-12-18T08:34:46;102815.34;;;-4.73;88.75
76321;BME280;65132;52.088;5.402;2022-12-18T08:37:13;102815.34;;;-4.61;88.56
76321;BME280;65132;52.088;5.402;2022-12-18T08:39:39;102805.69;;;-4.53;88.27
76321;BME280;65132;52.088;5.402;2022-12-18T08:42:06;102818.84;;;-4.44;88.00
76321;BME280;65132;52.088;5.402;2022-12-18T08:44:35;102801.25;;;-4.31;86.77
76321;BME280;65132;52.088;5.402;2022-12-18T08:47:02;102792.44;;;-4.26;87.12
76321;BME280;65132;52.088;5.402;2022-12-18T08:49:28;102795.88;;;-4.06;86.67
76321;BME280;65132;52.088;5.402;2022-12-18T08:51:56;102787.88;;;-3.89;85.94
76321;BME280;65132;52.088;5.402;2022-12-18T08:54:23;102778.97;;;-3.66;85.14
76321;BME280;65132;52.088;5.402;2022-12-18T08:56:51;102777.00;;;-3.32;83.57
76321;BME280;65132;52.088;5.402;2022-12-18T08:59:18;102782.97;;;-3.03;83.03
76321;BME280;65132;52.088;5.402;2022-12-18T09:01:46;102788.00;;;-2.68;81.47
76321;BME280;65132;52.088;5.402;2022-12-18T09:04:13;102794.38;;;-2.90;81.23
76321;BME280;65132;52.088;5.402;2022-12-18T09:06:40;102797.91;;;-2.94;82.29
76321;BME280;65132;52.088;5.402;2022-12-18T09:09:09;102789.16;;;-3.01;82.15
76321;BME280;65132;52.088;5.402;2022-12-18T09:11:36;102792.63;;;-2.91;82.71
76321;BME280;65132;52.088;5.402;2022-12-18T09:14:04;102789.00;;;-2.84;82.23
76321;BME280;65132;52.088;5.402;2022-12-18T09:16:32;102789.22;;;-3.11;82.83
76321;BME280;65132;52.088;5.402;2022-12-18T09:18:59;102798.06;;;-3.12;83.08
76321;BME280;65132;52.088;5.402;2022-12-18T09:21:28;102796.38;;;-3.22;83.93
76321;BME280;65132;52.088;5.402;2022-12-18T09:23:56;102789.31;;;-3.25;84.58
76321;BME280;65132;52.088;5.402;2022-12-18T09:26:23;102796.38;;;-3.22;84.74
76321;BME280;65132;52.088;5.402;2022-12-18T09:28:50;102789.34;;;-3.29;84.84
76321;BME280;65132;52.088;5.402;2022-12-18T09:31:18;102789.28;;;-3.17;84.93
76321;BME280;65132;52.088;5.402;2022-12-18T09:33:45;102785.72;;;-3.16;84.54
76321;BME280;65132;52.088;5.402;2022-12-18T09:36:16;102777.78;;;-3.18;85.03
76321;BME280;65132;52.088;5.402;2022-12-18T09:38:44;102763.69;;;-3.21;84.80
76321;BME280;65132;52.088;5.402;2022-12-18T09:44:01;102768.94;;;-3.12;84.87
76321;BME280;65132;52.088;5.402;2022-12-18T09:46:36;102766.28;;;-3.12;84.96
76321;BME280;65132;52.088;5.402;2022-12-18T09:49:10;102768.03;;;-3.11;84.75
76321;BME280;65132;52.088;5.402;2022-12-18T09:51:48;102750.28;;;-2.97;84.97
76321;BME280;65132;52.088;5.402;2022-12-18T09:54:21;102751.19;;;-3.00;85.19
76321;BME280;65132;52.088;5.402;2022-12-18T09:56:50;102740.53;;;-2.94;84.33
76321;BME280;65132;52.088;5.402;2022-12-18T10:01:49;102746.66;;;-2.87;84.20
76321;BME280;65132;52.088;5.402;2022-12-18T10:04:18;102753.72;;;-2.88;84.33
76321;BME280;65132;52.088;5.402;2022-12-18T10:07:06;102743.97;;;-2.81;84.73
76321;BME280;65132;52.088;5.402;2022-12-18T10:12:40;102735.09;;;-2.79;84.22
76321;BME280;65132;52.088;5.402;2022-12-18T10:15:31;102730.69;;;-2.78;83.90
76321;BME280;65132;52.088;5.402;2022-12-18T10:18:19;102722.69;;;-2.69;83.98
76321;BME280;65132;52.088;5.402;2022-12-18T10:20:50;102723.53;;;-2.66;84.63
76321;BME280;65132;52.088;5.402;2022-12-18T10:23:29;102741.09;;;-2.60;84.23
76321;BME280;65132;52.088;5.402;2022-12-18T10:26:05;102741.09;;;-2.56;83.96
76321;BME280;65132;52.088;5.402;2022-12-18T10:28:36;102739.25;;;-2.51;84.49
76321;BME280;65132;52.088;5.402;2022-12-18T10:31:14;102744.59;;;-2.52;83.78
76321;BME280;65132;52.088;5.402;2022-12-18T10:33:42;102729.50;;;-2.49;84.03
76321;BME280;65132;52.088;5.402;2022-12-18T10:36:08;102717.13;;;-2.47;84.52
76321;BME280;65132;52.088;5.402;2022-12-18T10:38:35;102709.13;;;-2.42;84.23
76321;BME280;65132;52.088;5.402;2022-12-18T10:41:22;102714.41;;;-2.39;84.25
76321;BME280;65132;52.088;5.402;2022-12-18T10:46:38;102708.13;;;-2.30;83.77
76321;BME280;65132;52.088;5.402;2022-12-18T10:49:18;102686.84;;;-2.26;84.03
76321;BME280;65132;52.088;5.402;2022-12-18T10:51:46;102693.84;;;-2.20;83.68
76321;BME280;65132;52.088;5.402;2022-12-18T10:54:17;102696.41;;;-2.11;84.14
76321;BME280;65132;52.088;5.402;2022-12-18T10:56:45;102702.47;;;-2.03;83.51
76321;BME280;65132;52.088;5.402;2022-12-18T10:59:14;102696.16;;;-1.95;82.70
76321;BME280;65132;52.088;5.402;2022-12-18T11:01:59;102693.41;;;-1.89;82.52
76321;BME280;65132;52.088;5.402;2022-12-18T11:04:28;102678.41;;;-1.88;82.53
76321;BME280;65132;52.088;5.402;2022-12-18T11:07:06;102674.88;;;-1.87;82.41
76321;BME280;65132;52.088;5.402;2022-12-18T11:09:38;102671.22;;;-1.82;82.32
76321;BME280;65132;52.088;5.402;2022-12-18T11:12:19;102672.13;;;-1.81;81.97
76321;BME280;65132;52.088;5.402;2022-12-18T11:14:48;102668.50;;;-1.76;82.34
76321;BME280;65132;52.088;5.402;2022-12-18T11:17:36;102661.34;;;-1.71;82.23
76321;BME280;65132;52.088;5.402;2022-12-18T11:20:19;102661.31;;;-1.69;82.32
76321;BME280;65132;52.088;5.402;2022-12-18T11:23:11;102650.56;;;-1.59;81.70
76321;BME280;65132;52.088;5.402;2022-12-18T11:25:51;102651.44;;;-1.60;82.16
76321;BME280;65132;52.088;5.402;2022-12-18T11:28:29;102649.63;;;-1.56;81.77
76321;BME280;65132;52.088;5.402;2022-12-18T11:31:19;102640.75;;;-1.54;81.38
76321;BME280;65132;52.088;5.402;2022-12-18T11:33:52;102640.56;;;-1.45;81.06
76321;BME280;65132;52.088;5.402;2022-12-18T11:36:45;102652.81;;;-1.36;81.61
76321;BME280;65132;52.088;5.402;2022-12-18T11:39:18;102654.63;;;-1.37;80.48
76321;BME280;65132;52.088;5.402;2022-12-18T11:42:24;102654.53;;;-1.32;80.56
76321;BME280;65132;52.088;5.402;2022-12-18T11:47:49;102629.75;;;-1.33;80.25
76321;BME280;65132;52.088;5.402;2022-12-18T11:50:21;102627.06;;;-1.31;81.18
76321;BME280;65132;52.088;5.402;2022-12-18T11:52:50;102629.63;;;-1.25;80.59
76321;BME280;65132;52.088;5.402;2022-12-18T11:55:41;102639.28;;;-1.19;80.12
76321;BME280;65132;52.088;5.402;2022-12-18T11:58:42;102611.75;;;-1.15;80.15
76321;BME280;65132;52.088;5.402;2022-12-18T12:06:38;102596.66;;;-1.13;79.76
76321;BME280;65132;52.088;5.402;2022-12-18T12:09:30;102593.09;;;-1.11;79.29
76321;BME280;65132;52.088;5.402;2022-12-18T12:15:26;102577.81;;;-1.00;79.66
76321;BME280;65132;52.088;5.402;2022-12-18T12:18:15;102574.25;;;-0.97;79.99
76321;BME280;65132;52.088;5.402;2022-12-18T12:21:07;102569.78;;;-0.97;78.99
76321;BME280;65132;52.088;5.402;2022-12-18T12:26:49;102570.59;;;-0.93;79.24
76321;BME280;65132;52.088;5.402;2022-12-18T12:30:02;102572.28;;;-0.88;79.60
76321;BME280;65132;52.088;5.402;2022-12-18T12:33:05;102564.31;;;-0.88;79.08
76321;BME280;65132;52.088;5.402;2022-12-18T12:38:52;102552.69;;;-0.82;78.63
76321;BME280;65132;52.088;5.402;2022-12-18T12:41:24;102550.03;;;-0.82;78.61
76321;BME280;65132;52.088;5.402;2022-12-18T12:43:51;102545.56;;;-0.80;79.05
76321;BME280;65132;52.088;5.402;2022-12-18T12:46:22;102546.31;;;-0.74;79.31
76321;BME280;65132;52.088;5.402;2022-12-18T12:48:55;102536.50;;;-0.70;78.84
76321;BME280;65132;52.088;5.402;2022-12-18T12:51:30;102527.53;;;-0.66;78.82
76321;BME280;65132;52.088;5.402;2022-12-18T12:53:59;102518.78;;;-0.71;78.97
76321;BME280;65132;52.088;5.402;2022-12-18T12:59:50;102515.09;;;-0.64;79.02
76321;BME280;65132;52.088;5.402;2022-12-18T13:03:12;102526.56;;;-0.62;78.59
76321;BME280;65132;52.088;5.402;2022-12-18T13:05:56;102517.69;;;-0.61;78.31
76321;BME280;65132;52.088;5.402;2022-12-18T13:08:34;102515.94;;;-0.62;78.21
76321;BME280;65132;52.088;5.402;2022-12-18T13:14:22;102512.25;;;-0.55;78.40
76321;BME280;65132;52.088;5.402;2022-12-18T13:16:50;102513.94;;;-0.51;78.30
76321;BME280;65132;52.088;5.402;2022-12-18T13:19:25;102520.97;;;-0.49;78.01
76321;BME280;65132;52.088;5.402;2022-12-18T13:21:54;102520.88;;;-0.46;77.83
76321;BME280;65132;52.088;5.402;2022-12-18T13:24:25;102521.69;;;-0.42;76.80
76321;BME280;65132;52.088;5.402;2022-12-18T13:26:53;102520.81;;;-0.41;77.47
76321;BME280;65132;52.088;5.402;2022-12-18T13:29:45;102508.34;;;-0.39;77.04
76321;BME280;65132;52.088;5.402;2022-12-18T13:32:21;102501.22;;;-0.39;76.47
76321;BME280;65132;52.088;5.402;2022-12-18T13:37:52;102491.44;;;-0.37;75.73
76321;BME280;65132;52.088;5.402;2022-12-18T13:41:02;102486.97;;;-0.35;76.62
76321;BME280;65132;52.088;5.402;2022-12-18T13:43:38;102493.97;;;-0.32;75.83
76321;BME280;65132;52.088;5.402;2022-12-18T13:46:24;102485.16;;;-0.33;76.63
76321;BME280;65132;52.088;5.402;2022-12-18T13:48:58;102478.88;;;-0.30;75.98
76321;BME280;65132;52.088;5.402;2022-12-18T13:51:27;102468.28;;;-0.32;75.79
76321;BME280;65132;52.088;5.402;2022-12-18T13:54:00;102463.78;;;-0.30;75.78
76321;BME280;65132;52.088;5.402;2022-12-18T13:56:31;102470.00;;;-0.29;75.79
76321;BME280;65132;52.088;5.402;2022-12-18T13:59:10;102466.38;;;-0.27;75.46
76321;BME280;65132;52.088;5.402;2022-12-18T14:04:20;102453.06;;;-0.27;75.72
76321;BME280;65132;52.088;5.402;2022-12-18T14:06:50;102454.84;;;-0.26;75.38
76321;BME280;65132;52.088;5.402;2022-12-18T14:09:24;102441.56;;;-0.27;75.53
76321;BME280;65132;52.088;5.402;2022-12-18T14:11:52;102440.63;;;-0.25;75.21
76321;BME280;65132;52.088;5.402;2022-12-18T14:14:19;102452.16;;;-0.24;75.36